Time;durP1;ratioP1;P1;durP2;ratioP2;P2;SDS_P1;SDS_P2;PMS_P1;PMS_P2;Temp;Humidity;BMP_temperature;BMP_pressure;BME280_temperature;BME280_humidity;BME280_pressure;Samples;Min_cycle;Max_cycle;Signal;HPM_P1;HPM_P2
2022/06/13 00:00:25;;;;;;;6.07;3.60;;;;;;;;;;5029610;28;20037;-81
2022/06/13 00:02:50;;;;;;;5.20;3.40;;;;;;;;;;5030031;28;20030;-81
2022/06/13 00:05:17;;;;;;;5.35;3.35;;;;;;;;;;5029776;28;20113;-82
2022/06/13 00:07:44;;;;;;;7.85;3.60;;;;;;;;;;5028602;28;20588;-79
2022/06/13 00:10:11;;;;;;;6.07;3.63;;;;;;;;;;5029720;28;20695;-80
2022/06/13 00:12:37;;;;;;;7.47;3.70;;;;;;;;;;5029858;28;20689;-81
2022/06/13 00:15:03;;;;;;;8.32;3.80;;;;;;;;;;5029584;28;20034;-81
2022/06/13 00:17:29;;;;;;;8.02;3.47;;;;;;;;;;5029826;28;20029;-81
2022/06/13 00:19:54;;;;;;;6.82;3.60;;;;;;;;;;5029443;28;20515;-81
2022/06/13 00:22:20;;;;;;;7.78;3.90;;;;;;;;;;5029797;28;20082;-79
2022/06/13 00:24:45;;;;;;;8.20;4.15;;;;;;;;;;5031924;28;20037;-79
2022/06/13 00:27:11;;;;;;;7.78;3.72;;;;;;;;;;5033375;28;20083;-83
2022/06/13 00:29:39;;;;;;;6.03;3.65;;;;;;;;;;5033027;28;20459;-81
2022/06/13 00:32:05;;;;;;;7.03;3.80;;;;;;;;;;5033364;28;20078;-80
2022/06/13 00:34:30;;;;;;;12.43;4.50;;;;;;;;;;5032882;28;20404;-80
2022/06/13 00:36:56;;;;;;;6.90;4.07;;;;;;;;;;5032833;28;20096;-80
2022/06/13 00:39:21;;;;;;;5.10;3.70;;;;;;;;;;5032853;28;20029;-80
2022/06/13 00:41:47;;;;;;;6.90;3.60;;;;;;;;;;5033222;28;20022;-80
2022/06/13 00:44:28;;;;;;;8.88;3.92;;;;;;;;;;5032747;28;20586;-81
2022/06/13 00:46:54;;;;;;;7.28;3.90;;;;;;;;;;5033071;28;20026;-82
2022/06/13 00:49:25;;;;;;;7.50;3.70;;;;;;;;;;5032578;28;20022;-82
2022/06/13 00:52:12;;;;;;;8.43;3.83;;;;;;;;;;5032681;28;20469;-81
2022/06/13 00:54:38;;;;;;;8.43;3.50;;;;;;;;;;5032446;28;20029;-81
2022/06/13 00:57:06;;;;;;;10.85;3.58;;;;;;;;;;5032611;28;20026;-80
2022/06/13 00:59:36;;;;;;;10.70;3.65;;;;;;;;;;5032437;28;20041;-81
2022/06/13 01:02:02;;;;;;;11.07;3.63;;;;;;;;;;5032592;28;20099;-80
2022/06/13 01:04:28;;;;;;;9.10;3.17;;;;;;;;;;5032504;28;20125;-81
2022/06/13 01:06:55;;;;;;;10.90;3.38;;;;;;;;;;5032483;28;20261;-82
2022/06/13 01:12:06;;;;;;;15.13;3.63;;;;;;;;;;5032663;28;20040;-81
2022/06/13 01:15:03;;;;;;;10.18;3.40;;;;;;;;;;5032194;28;20087;-82
2022/06/13 01:18:04;;;;;;;8.93;3.10;;;;;;;;;;5032567;28;20393;-80
2022/06/13 01:20:29;;;;;;;;;;;;;;;;;;5026712;28;20065;-81
2022/06/13 01:23:24;;;;;;;12.27;3.27;;;;;;;;;;5032336;28;19956;-81
2022/06/13 01:25:55;;;;;;;12.10;3.65;;;;;;;;;;5024597;28;20794;-81
2022/06/13 01:28:58;;;;;;;11.63;3.60;;;;;;;;;;5032199;28;20025;-81
2022/06/13 01:31:29;;;;;;;14.77;3.42;;;;;;;;;;5031768;28;20033;-82
2022/06/13 01:34:03;;;;;;;12.45;3.30;;;;;;;;;;5031967;28;20032;-82
2022/06/13 01:36:41;;;;;;;8.43;3.40;;;;;;;;;;5031096;28;20029;-82
2022/06/13 01:39:40;;;;;;;12.32;3.45;;;;;;;;;;5031778;28;20026;-82
2022/06/13 01:42:19;;;;;;;11.73;3.72;;;;;;;;;;5031792;28;20033;-80
2022/06/13 01:44:57;;;;;;;11.00;3.08;;;;;;;;;;5031919;28;20057;-81
2022/06/13 01:47:49;;;;;;;12.45;3.47;;;;;;;;;;5031820;28;20474;-81
2022/06/13 01:50:28;;;;;;;14.93;3.17;;;;;;;;;;5029933;28;20033;-81
2022/06/13 01:52:57;;;;;;;10.45;2.97;;;;;;;;;;5031599;28;20103;-79
2022/06/13 01:55:37;;;;;;;10.68;2.85;;;;;;;;;;5031437;28;20021;-80
2022/06/13 01:58:32;;;;;;;12.23;2.97;;;;;;;;;;5031882;28;20104;-82
2022/06/13 02:01:19;;;;;;;13.30;3.40;;;;;;;;;;4994233;28;20057;-81
2022/06/13 02:03:49;;;;;;;12.10;3.28;;;;;;;;;;5031567;28;20366;-81
2022/06/13 02:06:37;;;;;;;14.00;3.00;;;;;;;;;;5031131;28;20397;-81
2022/06/13 02:09:07;;;;;;;12.77;2.90;;;;;;;;;;5031429;28;20481;-81
2022/06/13 02:11:39;;;;;;;9.77;3.00;;;;;;;;;;5030943;28;20029;-81
2022/06/13 02:14:28;;;;;;;11.13;3.13;;;;;;;;;;5031469;28;20036;-80
2022/06/13 02:17:14;;;;;;;11.65;3.10;;;;;;;;;;5011787;28;20041;-81
2022/06/13 02:19:48;;;;;;;10.10;3.05;;;;;;;;;;5031282;28;20045;-80
2022/06/13 02:22:21;;;;;;;12.50;3.38;;;;;;;;;;5031261;28;20443;-80
2022/06/13 02:24:56;;;;;;;16.83;3.63;;;;;;;;;;5032153;28;20053;-82
2022/06/13 02:27:25;;;;;;;11.65;3.60;;;;;;;;;;5031810;28;20026;-81
2022/06/13 02:29:55;;;;;;;13.57;3.78;;;;;;;;;;5032025;28;20078;-82
2022/06/13 02:32:26;;;;;;;;;;;;;;;;;;5032598;28;20033;-81
2022/06/13 02:35:01;;;;;;;11.07;3.45;;;;;;;;;;5032106;28;19909;-81
2022/06/13 02:37:35;;;;;;;12.75;3.80;;;;;;;;;;5032016;28;20501;-80
2022/06/13 02:40:13;;;;;;;12.77;3.53;;;;;;;;;;5031654;28;20036;-80
2022/06/13 02:42:47;;;;;;;11.60;3.47;;;;;;;;;;5031526;28;20128;-81
2022/06/13 02:45:26;;;;;;;11.63;3.30;;;;;;;;;;5042151;28;20084;-81
2022/06/13 02:48:07;;;;;;;12.20;3.90;;;;;;;;;;5044681;28;20528;-76
2022/06/13 02:50:54;;;;;;;11.35;4.05;;;;;;;;;;5043697;28;20021;-77
2022/06/13 02:53:39;;;;;;;11.65;3.75;;;;;;;;;;5043978;28;20032;-73
2022/06/13 02:56:14;;;;;;;15.00;4.25;;;;;;;;;;5038439;28;20040;-75
2022/06/13 02:58:52;;;;;;;12.82;4.20;;;;;;;;;;5039711;28;20028;-74
2022/06/13 03:01:22;;;;;;;13.38;4.53;;;;;;;;;;5030956;28;20052;-79
2022/06/13 03:04:06;;;;;;;18.83;4.82;;;;;;;;;;5035316;28;20021;-75
2022/06/13 03:06:38;;;;;;;14.88;4.53;;;;;;;;;;5031566;28;20029;-80
2022/06/13 03:09:15;;;;;;;12.63;4.70;;;;;;;;;;5029844;28;20034;-81
2022/06/13 03:12:00;;;;;;;20.05;4.90;;;;;;;;;;5030968;28;20428;-81
2022/06/13 03:14:47;;;;;;;16.42;4.70;;;;;;;;;;5030842;28;20056;-81
2022/06/13 03:17:40;;;;;;;11.93;4.50;;;;;;;;;;5030652;28;20033;-81
2022/06/13 03:20:13;;;;;;;12.15;4.53;;;;;;;;;;5030446;28;20476;-79
2022/06/13 03:23:05;;;;;;;11.65;5.03;;;;;;;;;;5030332;28;20030;-80
2022/06/13 03:25:49;;;;;;;16.27;5.63;;;;;;;;;;5030627;28;20049;-81
2022/06/13 03:28:33;;;;;;;11.55;4.90;;;;;;;;;;5031086;28;20473;-81
2022/06/13 03:31:08;;;;;;;14.63;4.68;;;;;;;;;;5030766;28;20032;-79
2022/06/13 03:33:41;;;;;;;18.08;5.10;;;;;;;;;;5030479;28;20373;-80
2022/06/13 03:36:24;;;;;;;12.35;4.70;;;;;;;;;;5030187;28;20494;-81
2022/06/13 03:39:01;;;;;;;13.75;4.68;;;;;;;;;;5030687;28;20034;-81
2022/06/13 03:41:32;;;;;;;14.35;4.85;;;;;;;;;;5030171;28;20036;-81
2022/06/13 03:44:15;;;;;;;11.32;4.53;;;;;;;;;;5030425;28;20489;-78
2022/06/13 03:46:52;;;;;;;10.82;4.55;;;;;;;;;;5029770;28;20033;-81
2022/06/13 03:49:23;;;;;;;12.18;4.57;;;;;;;;;;5030437;28;20041;-79
2022/06/13 03:51:53;;;;;;;11.93;4.45;;;;;;;;;;5029691;28;20441;-81
2022/06/13 03:54:26;;;;;;;10.77;3.97;;;;;;;;;;5030533;28;20030;-81
2022/06/13 03:57:00;;;;;;;13.68;4.50;;;;;;;;;;5029896;28;20018;-73
2022/06/13 03:59:47;;;;;;;10.30;4.47;;;;;;;;;;5032361;28;20029;-79
2022/06/13 04:02:16;;;;;;;14.32;4.40;;;;;;;;;;5033553;28;20083;-80
2022/06/13 04:04:47;;;;;;;14.10;4.75;;;;;;;;;;5034144;28;20025;-80
2022/06/13 04:07:12;;;;;;;;;;;;;;;;;;5033944;28;20025;-79
2022/06/13 04:09:47;;;;;;;10.93;3.90;;;;;;;;;;5033953;28;19967;-82
2022/06/13 04:12:29;;;;;;;11.05;4.47;;;;;;;;;;5033533;28;20021;-79
2022/06/13 04:15:21;;;;;;;15.32;4.22;;;;;;;;;;5033996;28;20033;-82
2022/06/13 04:18:07;;;;;;;12.25;4.22;;;;;;;;;;5033304;28;20100;-80
2022/06/13 04:20:35;;;;;;;12.30;3.90;;;;;;;;;;5033269;28;20560;-79
2022/06/13 04:23:21;;;;;;;13.23;3.92;;;;;;;;;;5033381;28;20025;-80
2022/06/13 04:26:24;;;;;;;9.27;3.92;;;;;;;;;;5033665;28;20160;-80
2022/06/13 04:29:11;;;;;;;11.52;4.13;;;;;;;;;;5033499;28;20036;-81
2022/06/13 04:31:37;;;;;;;11.10;3.70;;;;;;;;;;5033269;28;20102;-81
2022/06/13 04:34:10;;;;;;;9.68;3.78;;;;;;;;;;5033352;28;20036;-80
2022/06/13 04:36:36;;;;;;;11.50;4.10;;;;;;;;;;5032983;28;20021;-81
2022/06/13 04:39:07;;;;;;;8.93;3.90;;;;;;;;;;5033202;28;20025;-80
2022/06/13 04:41:36;;;;;;;10.18;3.85;;;;;;;;;;5033170;28;20032;-81
2022/06/13 04:44:03;;;;;;;10.18;3.85;;;;;;;;;;5033105;28;20052;-78
2022/06/13 04:46:30;;;;;;;10.70;3.85;;;;;;;;;;5033590;28;20018;-81
2022/06/13 04:48:59;;;;;;;10.68;4.05;;;;;;;;;;5031845;28;20024;-80
2022/06/13 04:51:30;;;;;;;11.32;4.07;;;;;;;;;;5031347;28;20112;-80
2022/06/13 04:54:12;;;;;;;10.38;3.85;;;;;;;;;;5032941;28;20084;-81
2022/06/13 04:56:38;;;;;;;7.40;3.65;;;;;;;;;;5033118;28;20564;-77
2022/06/13 04:59:04;;;;;;;10.35;4.43;;;;;;;;;;5032562;28;20022;-78
2022/06/13 05:01:34;;;;;;;8.50;3.70;;;;;;;;;;5032721;28;20049;-76
2022/06/13 05:04:04;;;;;;;10.25;4.03;;;;;;;;;;5032557;28;20035;-80
2022/06/13 05:06:38;;;;;;;8.68;4.40;;;;;;;;;;5032477;28;20033;-73
2022/06/13 05:09:19;;;;;;;11.90;4.32;;;;;;;;;;5032310;28;20533;-75
2022/06/13 05:12:09;;;;;;;14.35;4.57;;;;;;;;;;5031375;28;20104;-73
2022/06/13 05:14:44;;;;;;;11.73;4.40;;;;;;;;;;5032309;28;20509;-75
2022/06/13 05:17:28;;;;;;;13.38;4.22;;;;;;;;;;5030866;28;20030;-81
2022/06/13 05:20:10;;;;;;;9.57;4.50;;;;;;;;;;5032204;28;20499;-82
2022/06/13 05:23:07;;;;;;;10.25;5.07;;;;;;;;;;5031839;28;20036;-74
2022/06/13 05:25:43;;;;;;;10.60;5.00;;;;;;;;;;5032340;28;20701;-80
2022/06/13 05:28:12;;;;;;;12.68;5.53;;;;;;;;;;5032162;28;20029;-73
2022/06/13 05:30:41;;;;;;;9.82;4.93;;;;;;;;;;5031945;28;20162;-79
2022/06/13 05:33:06;;;;;;;9.60;4.97;;;;;;;;;;5031787;28;20033;-73
2022/06/13 05:35:35;;;;;;;14.15;5.13;;;;;;;;;;5032173;28;20112;-80
2022/06/13 05:38:03;;;;;;;10.18;4.95;;;;;;;;;;5031892;28;20018;-79
2022/06/13 05:40:29;;;;;;;10.55;5.30;;;;;;;;;;5032148;28;20036;-73
2022/06/13 05:42:54;;;;;;;11.90;4.90;;;;;;;;;;5031553;28;20025;-73
2022/06/13 05:45:24;;;;;;;12.18;4.97;;;;;;;;;;5032016;28;20041;-82
2022/06/13 05:47:52;;;;;;;9.90;4.87;;;;;;;;;;5031792;28;20017;-74
2022/06/13 05:50:21;;;;;;;8.77;4.80;;;;;;;;;;5031739;28;20252;-74
2022/06/13 05:52:47;;;;;;;10.20;4.80;;;;;;;;;;5031020;28;20025;-73
2022/06/13 05:55:12;;;;;;;11.63;4.82;;;;;;;;;;5031690;28;20049;-73
2022/06/13 05:57:39;;;;;;;9.30;4.95;;;;;;;;;;5031630;28;20037;-73
2022/06/13 06:00:07;;;;;;;10.48;4.75;;;;;;;;;;5030081;28;20507;-73
2022/06/13 06:02:32;;;;;;;10.18;5.32;;;;;;;;;;5031567;28;20029;-73
2022/06/13 06:04:58;;;;;;;10.95;5.20;;;;;;;;;;5031401;28;20497;-79
2022/06/13 06:07:23;;;;;;;9.90;5.20;;;;;;;;;;5031130;28;20033;-81
2022/06/13 06:09:49;;;;;;;11.50;4.95;;;;;;;;;;5031209;28;20036;-83
2022/06/13 06:12:14;;;;;;;11.25;4.63;;;;;;;;;;5031293;28;20075;-81
2022/06/13 06:14:40;;;;;;;12.95;5.18;;;;;;;;;;5029831;28;20056;-82
2022/06/13 06:17:05;;;;;;;11.73;4.72;;;;;;;;;;5031447;28;20101;-77
2022/06/13 06:19:31;;;;;;;12.27;4.80;;;;;;;;;;5031172;28;20053;-81
2022/06/13 06:21:56;;;;;;;10.38;4.70;;;;;;;;;;5030929;28;20029;-82
2022/06/13 06:24:21;;;;;;;9.35;4.15;;;;;;;;;;5031158;28;20053;-81
2022/06/13 06:26:47;;;;;;;10.73;4.60;;;;;;;;;;5031146;28;20647;-81
2022/06/13 06:29:12;;;;;;;7.07;4.40;;;;;;;;;;5030792;28;20036;-81
2022/06/13 06:31:38;;;;;;;9.52;4.43;;;;;;;;;;5031123;28;20108;-83
2022/06/13 06:34:03;;;;;;;10.45;4.05;;;;;;;;;;5030787;28;20021;-82
2022/06/13 06:36:29;;;;;;;12.55;4.22;;;;;;;;;;5031139;28;20091;-82
2022/06/13 06:38:55;;;;;;;9.55;4.13;;;;;;;;;;5030813;28;20100;-82
2022/06/13 06:41:21;;;;;;;11.00;4.30;;;;;;;;;;5030898;28;20040;-82
2022/06/13 06:43:46;;;;;;;11.35;4.10;;;;;;;;;;5030752;28;20440;-82
2022/06/13 06:46:12;;;;;;;9.63;4.05;;;;;;;;;;5030965;28;20065;-80
2022/06/13 06:48:37;;;;;;;10.73;3.60;;;;;;;;;;5030518;28;20408;-81
2022/06/13 06:51:08;;;;;;;7.55;3.92;;;;;;;;;;5030608;28;20079;-80
2022/06/13 07:01:47;;;;;;;7.75;3.50;;;;;;;;;;5030894;28;20036;-81
2022/06/13 07:04:13;;;;;;;8.30;3.63;;;;;;;;;;5030242;28;20432;-82
2022/06/13 07:06:39;;;;;;;7.97;3.55;;;;;;;;;;5030332;28;20730;-80
2022/06/13 07:09:04;;;;;;;8.25;3.38;;;;;;;;;;5030383;28;20038;-82
2022/06/13 07:14:15;;;;;;;10.85;3.00;;;;;;;;;;5030590;28;20563;-83
2022/06/13 07:16:40;;;;;;;9.88;3.35;;;;;;;;;;5030754;28;20022;-82
2022/06/13 07:19:06;;;;;;;9.98;3.70;;;;;;;;;;5030281;28;20025;-82
2022/06/13 07:21:32;;;;;;;9.27;3.38;;;;;;;;;;5029988;28;20048;-81
2022/06/13 07:23:57;;;;;;;10.15;3.58;;;;;;;;;;5028489;28;20045;-77
2022/06/13 07:26:23;;;;;;;9.90;3.55;;;;;;;;;;5030329;28;20033;-81
2022/06/13 07:28:49;;;;;;;6.95;3.00;;;;;;;;;;5030200;28;20401;-81
2022/06/13 07:31:19;;;;;;;8.73;3.20;;;;;;;;;;5030255;28;20048;-79
2022/06/13 07:33:48;;;;;;;10.70;3.70;;;;;;;;;;5031469;28;20115;-81
2022/06/13 07:36:14;;;;;;;6.03;3.20;;;;;;;;;;5034196;28;20033;-74
2022/06/13 07:38:39;;;;;;;9.02;3.47;;;;;;;;;;5034260;28;20060;-80
2022/06/13 07:41:05;;;;;;;10.68;3.40;;;;;;;;;;5033857;28;20091;-81
2022/06/13 07:43:36;;;;;;;8.32;3.80;;;;;;;;;;5034061;28;20017;-80
2022/06/13 07:46:05;;;;;;;10.80;3.42;;;;;;;;;;5034096;28;20029;-79
2022/06/13 07:48:32;;;;;;;11.18;3.88;;;;;;;;;;5034116;28;20029;-80
2022/06/13 07:50:58;;;;;;;9.60;3.83;;;;;;;;;;5033660;28;20040;-73
2022/06/13 07:53:24;;;;;;;9.55;3.85;;;;;;;;;;5033988;28;20179;-81
2022/06/13 07:55:49;;;;;;;10.40;3.40;;;;;;;;;;5033785;28;20322;-81
2022/06/13 07:58:30;;;;;;;9.25;3.60;;;;;;;;;;5034121;28;20030;-75
2022/06/13 08:00:55;;;;;;;;;;;;;;;;;;5034004;28;20060;-80
2022/06/13 08:03:27;;;;;;;9.55;3.50;;;;;;;;;;5033673;28;19917;-80
2022/06/13 08:05:53;;;;;;;10.35;3.85;;;;;;;;;;5033470;28;20075;-77
2022/06/13 08:08:18;;;;;;;12.75;4.15;;;;;;;;;;5034018;28;20428;-80
2022/06/13 08:10:45;;;;;;;9.90;3.45;;;;;;;;;;5033687;28;20017;-75
2022/06/13 08:13:16;;;;;;;10.85;3.70;;;;;;;;;;5033327;28;20473;-79
2022/06/13 08:15:43;;;;;;;10.32;4.10;;;;;;;;;;5033471;28;20425;-75
2022/06/13 08:18:10;;;;;;;10.68;3.90;;;;;;;;;;5033345;28;20035;-80
2022/06/13 08:20:35;;;;;;;7.57;3.35;;;;;;;;;;5032962;28;20592;-77
2022/06/13 08:23:03;;;;;;;9.45;3.53;;;;;;;;;;5033400;28;20104;-80
2022/06/13 08:25:33;;;;;;;10.50;3.60;;;;;;;;;;5033089;28;20545;-79
2022/06/13 08:27:59;;;;;;;;;;;;;;;;;;5033889;28;20451;-80
2022/06/13 08:30:38;;;;;;;11.15;3.47;;;;;;;;;;5033038;28;20362;-80
2022/06/13 08:33:04;;;;;;;11.25;3.33;;;;;;;;;;5033247;28;20021;-80
2022/06/13 08:35:29;;;;;;;7.35;2.80;;;;;;;;;;5032689;28;20140;-74
2022/06/13 08:37:55;;;;;;;8.35;3.00;;;;;;;;;;5033141;28;20044;-76
2022/06/13 08:40:20;;;;;;;6.03;2.70;;;;;;;;;;5032453;28;20030;-74
2022/06/13 08:43:00;;;;;;;6.43;2.97;;;;;;;;;;5033042;28;20061;-73
2022/06/13 08:45:50;;;;;;;9.13;3.38;;;;;;;;;;5032806;28;20523;-73
2022/06/13 08:48:38;;;;;;;10.97;3.37;;;;;;;;;;5033199;28;20108;-75
2022/06/13 08:51:25;;;;;;;8.63;3.10;;;;;;;;;;5032569;28;20108;-73
2022/06/13 08:53:57;;;;;;;8.05;2.78;;;;;;;;;;5032547;28;20026;-76
2022/06/13 08:56:27;;;;;;;6.47;2.95;;;;;;;;;;5032653;28;20114;-76
2022/06/13 08:58:59;;;;;;;8.82;2.90;;;;;;;;;;5032509;28;20101;-75
2022/06/13 09:01:40;;;;;;;10.25;2.97;;;;;;;;;;5032606;28;20032;-80
2022/06/13 09:04:25;;;;;;;9.60;3.10;;;;;;;;;;5032348;28;20025;-77
2022/06/13 09:07:12;;;;;;;10.63;3.20;;;;;;;;;;5032485;28;20018;-76
2022/06/13 09:09:45;;;;;;;8.20;2.92;;;;;;;;;;5032683;28;20037;-79
2022/06/13 09:12:17;;;;;;;9.45;3.00;;;;;;;;;;5032085;28;20053;-76
2022/06/13 09:14:48;;;;;;;7.20;2.90;;;;;;;;;;5032500;28;20662;-80
2022/06/13 09:17:59;;;;;;;9.32;3.38;;;;;;;;;;5032188;28;20028;-80
2022/06/13 09:20:42;;;;;;;7.47;2.70;;;;;;;;;;5031996;28;20455;-80
2022/06/13 09:23:41;;;;;;;9.00;3.00;;;;;;;;;;5032021;28;20029;-74
2022/06/13 09:26:19;;;;;;;10.52;3.30;;;;;;;;;;5031928;28;20025;-81
2022/06/13 09:29:07;;;;;;;12.75;2.95;;;;;;;;;;5032327;28;20034;-76
2022/06/13 09:31:40;;;;;;;8.20;2.80;;;;;;;;;;5026091;28;20115;-74
2022/06/13 09:34:37;;;;;;;9.13;3.00;;;;;;;;;;5032000;28;20049;-80
2022/06/13 09:37:18;;;;;;;8.40;2.83;;;;;;;;;;5027469;28;20040;-81
2022/06/13 09:39:43;;;;;;;;;;;;;;;;;;5032324;28;20029;-73
2022/06/13 09:42:14;;;;;;;7.90;3.20;;;;;;;;;;5031788;28;19917;-80
2022/06/13 09:45:07;;;;;;;9.60;3.40;;;;;;;;;;5031909;28;20442;-79
2022/06/13 09:47:51;;;;;;;7.60;3.35;;;;;;;;;;5031883;28;20663;-80
2022/06/13 09:50:45;;;;;;;8.98;3.00;;;;;;;;;;5031668;28;20034;-83
2022/06/13 09:53:20;;;;;;;10.70;3.30;;;;;;;;;;5031694;28;20020;-80
2022/06/13 09:55:56;;;;;;;7.45;3.08;;;;;;;;;;5031153;28;20046;-79
2022/06/13 09:58:30;;;;;;;6.90;2.88;;;;;;;;;;5030413;28;20045;-81
2022/06/13 10:01:01;;;;;;;6.78;3.03;;;;;;;;;;5031255;28;20049;-81
2022/06/13 10:03:48;;;;;;;7.57;3.20;;;;;;;;;;5031428;28;20029;-75
2022/06/13 10:06:40;;;;;;;7.85;3.08;;;;;;;;;;5031180;28;20032;-83
2022/06/13 10:09:25;;;;;;;6.80;3.05;;;;;;;;;;5029459;28;20037;-81
2022/06/13 10:12:12;;;;;;;9.27;2.75;;;;;;;;;;5031004;28;20577;-82
2022/06/13 10:14:37;;;;;;;6.45;3.47;;;;;;;;;;5029914;28;20033;-74
2022/06/13 10:17:38;;;;;;;8.07;2.97;;;;;;;;;;5030829;28;20060;-76
2022/06/13 10:20:19;;;;;;;6.53;2.97;;;;;;;;;;5031072;28;20059;-72
2022/06/13 10:22:50;;;;;;;6.95;3.00;;;;;;;;;;5031173;28;20112;-76
2022/06/13 10:25:28;;;;;;;6.35;2.72;;;;;;;;;;5030898;28;20042;-72
2022/06/13 10:28:25;;;;;;;5.65;2.75;;;;;;;;;;5031215;28;20051;-73
2022/06/13 10:31:01;;;;;;;6.38;2.67;;;;;;;;;;5013419;28;20521;-75
2022/06/13 10:33:42;;;;;;;6.65;2.85;;;;;;;;;;5030899;28;20045;-74
2022/06/13 10:36:26;;;;;;;7.05;2.88;;;;;;;;;;5030648;28;20022;-75
2022/06/13 10:39:06;;;;;;;6.07;2.80;;;;;;;;;;5030940;28;20028;-74
2022/06/13 10:41:36;;;;;;;7.93;3.13;;;;;;;;;;5030768;28;20021;-73
2022/06/13 10:44:05;;;;;;;5.97;2.88;;;;;;;;;;5030510;28;20060;-75
2022/06/13 10:46:31;;;;;;;4.97;2.83;;;;;;;;;;5030466;28;20029;-74
2022/06/13 10:49:32;;;;;;;8.93;2.97;;;;;;;;;;5030586;28;20029;-73
2022/06/13 10:52:05;;;;;;;8.02;3.03;;;;;;;;;;5007149;28;20037;-72
2022/06/13 10:54:41;;;;;;;8.45;2.90;;;;;;;;;;5030661;28;20406;-73
2022/06/13 10:57:11;;;;;;;5.38;2.90;;;;;;;;;;5030528;28;20021;-79
2022/06/13 10:59:38;;;;;;;6.53;2.60;;;;;;;;;;5030530;28;20022;-80
2022/06/13 11:02:19;;;;;;;5.63;2.78;;;;;;;;;;5029088;28;20147;-81
2022/06/13 11:04:44;;;;;;;6.18;2.55;;;;;;;;;;5030351;28;20025;-81
2022/06/13 11:07:19;;;;;;;8.70;3.20;;;;;;;;;;5030043;28;20036;-82
2022/06/13 11:09:49;;;;;;;5.03;2.63;;;;;;;;;;5029880;28;20056;-81
2022/06/13 11:12:23;;;;;;;7.28;2.75;;;;;;;;;;5030426;28;20018;-81
2022/06/13 11:23:53;;;;;;;5.55;2.30;;;;;;;;;;5029898;28;20052;-81
2022/06/13 11:29:06;;;;;;;5.93;2.30;;;;;;;;;;5030120;28;20052;-81
2022/06/13 11:31:32;;;;;;;6.28;2.20;;;;;;;;;;5030047;28;20053;-81
2022/06/13 11:34:20;;;;;;;6.35;2.20;;;;;;;;;;5030000;28;20084;-80
2022/06/13 11:37:00;;;;;;;8.80;2.53;;;;;;;;;;5030294;28;20095;-81
2022/06/13 11:39:31;;;;;;;5.93;2.38;;;;;;;;;;5030262;28;20102;-81
2022/06/13 11:41:57;;;;;;;8.02;2.38;;;;;;;;;;5029936;28;20037;-81
2022/06/13 11:44:23;;;;;;;6.97;2.60;;;;;;;;;;5028579;28;20021;-81
2022/06/13 11:46:52;;;;;;;6.88;2.28;;;;;;;;;;5030065;28;20086;-82
2022/06/13 11:49:18;;;;;;;5.65;2.30;;;;;;;;;;5030199;28;20029;-81
2022/06/13 11:52:01;;;;;;;4.25;2.10;;;;;;;;;;5030018;28;20531;-81
2022/06/13 11:54:35;;;;;;;8.15;2.50;;;;;;;;;;5029879;28;20126;-81
2022/06/13 11:57:13;;;;;;;5.75;2.13;;;;;;;;;;5029944;28;20025;-77
2022/06/13 11:59:56;;;;;;;7.18;2.28;;;;;;;;;;5029825;28;20473;-81
2022/06/13 12:02:28;;;;;;;7.28;2.20;;;;;;;;;;5029640;28;20478;-82
2022/06/13 12:04:55;;;;;;;5.55;2.40;;;;;;;;;;5029938;28;20032;-79
2022/06/13 12:07:29;;;;;;;7.07;2.30;;;;;;;;;;5029901;28;20021;-81
2022/06/13 12:09:59;;;;;;;4.35;2.30;;;;;;;;;;5029918;28;20048;-75
2022/06/13 12:12:42;;;;;;;6.73;2.50;;;;;;;;;;5029736;28;20421;-79
2022/06/13 12:15:13;;;;;;;5.47;2.25;;;;;;;;;;5029791;28;20257;-81
2022/06/13 12:17:44;;;;;;;6.30;2.40;;;;;;;;;;5029383;28;20052;-82
2022/06/13 12:20:34;;;;;;;6.30;2.10;;;;;;;;;;5031348;28;20025;-82
2022/06/13 12:23:11;;;;;;;7.45;2.25;;;;;;;;;;5033129;28;20033;-80
2022/06/13 12:25:53;;;;;;;11.52;2.35;;;;;;;;;;5033484;28;20503;-81
2022/06/13 12:28:21;;;;;;;11.13;2.83;;;;;;;;;;5033209;28;20044;-81
2022/06/13 12:30:55;;;;;;;7.38;2.20;;;;;;;;;;5033433;28;20060;-81
2022/06/13 12:33:41;;;;;;;6.40;2.00;;;;;;;;;;5032768;28;20037;-81
2022/06/13 12:36:12;;;;;;;7.10;2.00;;;;;;;;;;5032953;28;20037;-81
2022/06/13 12:38:47;;;;;;;8.85;1.92;;;;;;;;;;5032816;28;20037;-80
2022/06/13 12:41:12;;;;;;;4.85;2.15;;;;;;;;;;5033013;28;20060;-75
2022/06/13 12:44:25;;;;;;;7.95;2.00;;;;;;;;;;5032785;28;20053;-80
2022/06/13 12:47:06;;;;;;;7.38;2.00;;;;;;;;;;4991188;28;20109;-80
2022/06/13 12:49:47;;;;;;;6.50;2.00;;;;;;;;;;4990978;28;20080;-80
2022/06/13 12:52:53;;;;;;;5.10;1.80;;;;;;;;;;5018675;28;20393;-81
2022/06/13 12:55:36;;;;;;;6.03;1.85;;;;;;;;;;5032492;28;20026;-81
2022/06/13 12:58:04;;;;;;;4.82;1.73;;;;;;;;;;5032412;28;20509;-80
2022/06/13 13:00:50;;;;;;;4.97;1.92;;;;;;;;;;5032757;28;20095;-81
2022/06/13 13:03:39;;;;;;;6.57;1.88;;;;;;;;;;5032440;28;20025;-81
2022/06/13 13:06:35;;;;;;;7.13;1.70;;;;;;;;;;5032594;28;20124;-81
2022/06/13 13:09:18;;;;;;;6.93;1.88;;;;;;;;;;5032081;28;20088;-82
2022/06/13 13:12:19;;;;;;;5.38;1.80;;;;;;;;;;5032532;28;20025;-82
2022/06/13 13:15:16;;;;;;;6.78;2.13;;;;;;;;;;5018627;28;20048;-81
2022/06/13 13:18:08;;;;;;;4.65;1.75;;;;;;;;;;5032319;28;20025;-81
2022/06/13 13:21:00;;;;;;;7.00;2.00;;;;;;;;;;5032314;28;20033;-80
2022/06/13 13:23:43;;;;;;;6.30;1.92;;;;;;;;;;5031775;28;20107;-81
2022/06/13 13:26:14;;;;;;;5.30;2.08;;;;;;;;;;5032186;28;20501;-81
2022/06/13 13:28:57;;;;;;;5.97;1.92;;;;;;;;;;5032070;28;20128;-72
2022/06/13 13:31:36;;;;;;;6.70;1.83;;;;;;;;;;5030936;28;20025;-74
2022/06/13 13:34:08;;;;;;;4.65;1.90;;;;;;;;;;5031566;28;20799;-74
2022/06/13 13:36:43;;;;;;;7.47;2.20;;;;;;;;;;5032128;28;20112;-73
2022/06/13 13:39:35;;;;;;;6.55;2.00;;;;;;;;;;5031805;28;20155;-74
2022/06/13 13:42:10;;;;;;;8.02;1.95;;;;;;;;;;5027284;28;20041;-75
2022/06/13 13:44:44;;;;;;;4.55;2.17;;;;;;;;;;5031466;28;20436;-74
2022/06/13 13:47:18;;;;;;;5.97;2.30;;;;;;;;;;5031867;28;20060;-74
2022/06/13 13:49:46;;;;;;;7.60;2.00;;;;;;;;;;5031422;28;20033;-73
2022/06/13 13:52:21;;;;;;;5.80;2.17;;;;;;;;;;5031690;28;20071;-74
2022/06/13 13:54:53;;;;;;;8.82;2.05;;;;;;;;;;5031293;28;20096;-74
2022/06/13 13:57:31;;;;;;;7.00;2.20;;;;;;;;;;5031704;28;20022;-73
2022/06/13 14:00:03;;;;;;;7.60;2.20;;;;;;;;;;5031383;28;20437;-81
2022/06/13 14:02:54;;;;;;;7.00;1.95;;;;;;;;;;5031631;28;20104;-79
2022/06/13 14:05:38;;;;;;;8.40;1.95;;;;;;;;;;5031030;28;20112;-74
2022/06/13 14:08:04;;;;;;;4.68;2.20;;;;;;;;;;5031189;28;20037;-73
2022/06/13 14:10:32;;;;;;;5.93;2.25;;;;;;;;;;5029835;28;20045;-73
2022/06/13 14:13:07;;;;;;;6.90;1.83;;;;;;;;;;5031271;28;20025;-73
2022/06/13 14:15:50;;;;;;;7.70;1.90;;;;;;;;;;5031117;28;20064;-73
2022/06/13 14:18:18;;;;;;;5.88;1.88;;;;;;;;;;5031133;28;20021;-72
2022/06/13 14:20:44;;;;;;;5.25;1.90;;;;;;;;;;5031282;28;20056;-72
2022/06/13 14:23:16;;;;;;;8.15;2.30;;;;;;;;;;5030831;28;20519;-74
2022/06/13 14:25:42;;;;;;;5.05;1.70;;;;;;;;;;5030894;28;20635;-72
2022/06/13 14:28:16;;;;;;;5.75;2.00;;;;;;;;;;5030822;28;20025;-79
2022/06/13 14:31:03;;;;;;;6.25;1.88;;;;;;;;;;5031040;28;20040;-78
2022/06/13 14:36:51;;;;;;;4.95;1.90;;;;;;;;;;5031178;28;20384;-82
2022/06/13 14:39:37;;;;;;;4.75;1.95;;;;;;;;;;5024081;28;20493;-80
2022/06/13 14:42:21;;;;;;;6.10;1.88;;;;;;;;;;5030928;28;20489;-75
2022/06/13 14:45:08;;;;;;;7.07;1.92;;;;;;;;;;5030328;28;20105;-77
2022/06/13 14:48:12;;;;;;;5.75;1.85;;;;;;;;;;5030736;28;20026;-76
2022/06/13 14:50:51;;;;;;;5.82;1.70;;;;;;;;;;5030501;28;20100;-74
2022/06/13 14:53:32;;;;;;;6.40;1.55;;;;;;;;;;5030826;28;20029;-81
2022/06/13 14:56:06;;;;;;;;;;;;;;;;;;5030942;28;20492;-81
2022/06/13 14:58:59;;;;;;;6.75;1.80;;;;;;;;;;5030619;28;20011;-81
2022/06/13 15:01:38;;;;;;;9.20;1.80;;;;;;;;;;5028423;28;20049;-73
2022/06/13 15:04:03;;;;;;;6.25;1.77;;;;;;;;;;5030054;28;20136;-81
2022/06/13 15:07:09;;;;;;;6.40;2.13;;;;;;;;;;5030260;28;20040;-78
2022/06/13 15:10:02;;;;;;;4.93;1.65;;;;;;;;;;5030190;28;20538;-77
2022/06/13 15:12:37;;;;;;;6.63;1.92;;;;;;;;;;5030476;28;20037;-81
2022/06/13 15:15:09;;;;;;;4.18;1.60;;;;;;;;;;5029994;28;20025;-79
2022/06/13 15:17:40;;;;;;;4.57;1.52;;;;;;;;;;5030152;28;20026;-73
2022/06/13 15:20:13;;;;;;;7.75;1.70;;;;;;;;;;5029965;28;20077;-80
2022/06/13 15:22:47;;;;;;;6.30;1.75;;;;;;;;;;5029981;28;20026;-78
2022/06/13 15:25:13;;;;;;;7.32;1.50;;;;;;;;;;5029440;28;20103;-81
2022/06/13 15:27:56;;;;;;;4.75;1.65;;;;;;;;;;5030334;28;20025;-81
2022/06/13 15:30:30;;;;;;;6.55;1.70;;;;;;;;;;5030277;28;20052;-77
2022/06/13 15:33:18;;;;;;;6.78;1.80;;;;;;;;;;5030283;28;20030;-80
2022/06/13 15:35:44;;;;;;;7.43;1.50;;;;;;;;;;5029907;28;20057;-81
2022/06/13 15:38:34;;;;;;;5.97;1.80;;;;;;;;;;5030009;28;20060;-81
2022/06/13 15:41:02;;;;;;;6.30;1.90;;;;;;;;;;5024616;28;20037;-81
2022/06/13 15:43:41;;;;;;;8.43;1.85;;;;;;;;;;5030151;28;20026;-80
2022/06/13 15:46:09;;;;;;;7.15;2.05;;;;;;;;;;5029681;28;20017;-77
2022/06/13 15:48:35;;;;;;;7.00;1.70;;;;;;;;;;5030298;28;20041;-76
2022/06/13 15:51:12;;;;;;;5.53;1.75;;;;;;;;;;5029776;28;20036;-80
2022/06/13 15:53:38;;;;;;;9.10;1.90;;;;;;;;;;5030127;28;20037;-80
2022/06/13 15:56:03;;;;;;;3.60;1.65;;;;;;;;;;5032796;28;20021;-79